createdAt,value
2022-09-25T00:01:14.048Z,84.26
2022-09-25T00:03:41.718Z,83.71
2022-09-25T00:06:15.995Z,84.46
2022-09-25T00:08:43.594Z,84.42
2022-09-25T00:11:28.555Z,83.58
2022-09-25T00:13:56.598Z,81.97
2022-09-25T00:16:30.441Z,83.71
2022-09-25T00:19:17.887Z,83.72
2022-09-25T00:21:45.450Z,83.92
2022-09-25T00:24:13.457Z,83.42
2022-09-25T00:26:42.940Z,84.54
2022-09-25T00:29:18.764Z,84.46
2022-09-25T00:31:46.049Z,84.41
2022-09-25T00:34:13.266Z,82.71
2022-09-25T00:36:40.332Z,83.46
2022-09-25T00:39:07.696Z,84.27
2022-09-25T00:41:35.166Z,85.31
2022-09-25T00:44:04.482Z,83.78
2022-09-25T00:46:44.315Z,82.88
2022-09-25T00:49:25.249Z,82.63
2022-09-25T00:52:13.085Z,83.60
2022-09-25T00:54:52.252Z,83.78
2022-09-25T00:57:26.945Z,83.01
2022-09-25T01:00:02.207Z,83.13
2022-09-25T01:02:39.670Z,82.99
2022-09-25T01:05:18.262Z,81.71
2022-09-25T01:07:49.092Z,81.75
2022-09-25T01:10:18.717Z,81.89
2022-09-25T01:12:49.146Z,81.37
2022-09-25T01:15:23.645Z,80.67
2022-09-25T01:18:42.332Z,79.69
2022-09-25T01:21:40.903Z,80.83
2022-09-25T01:25:34.150Z,80.44
2022-09-25T01:28:54.907Z,79.48
2022-09-25T01:32:03.042Z,78.65
2022-09-25T01:35:11.641Z,76.28
2022-09-25T01:38:06.040Z,75.49
2022-09-25T01:40:55.293Z,76.97
2022-09-25T01:43:39.651Z,77.52
2022-09-25T01:46:22.490Z,78.34
2022-09-25T01:48:58.039Z,77.45
2022-09-25T01:51:35.867Z,77.00
2022-09-25T01:54:12.562Z,78.31
2022-09-25T01:57:05.400Z,79.75
2022-09-25T02:00:12.132Z,78.76
2022-09-25T02:02:49.632Z,78.64
2022-09-25T02:05:33.293Z,77.74
2022-09-25T02:08:12.553Z,76.80
2022-09-25T02:10:51.515Z,77.23
2022-09-25T02:13:20.692Z,76.25
2022-09-25T02:15:57.266Z,77.18
2022-09-25T02:18:44.503Z,77.12
2022-09-25T02:21:51.804Z,77.24
2022-09-25T02:24:59.188Z,78.01
2022-09-25T02:27:29.338Z,77.94
2022-09-25T02:29:58.342Z,77.99
2022-09-25T02:32:32.969Z,78.28
2022-09-25T02:35:00.960Z,78.17
2022-09-25T02:37:28.567Z,78.62
2022-09-25T02:40:01.979Z,78.79
2022-09-25T02:43:14.065Z,78.24
2022-09-25T02:46:55.932Z,77.59
2022-09-25T02:49:34.179Z,77.60
2022-09-25T02:52:25.288Z,77.74
2022-09-25T02:55:31.810Z,77.17
2022-09-25T02:58:41.642Z,78.01
2022-09-25T03:01:15.281Z,79.46
2022-09-25T03:03:45.828Z,77.98
2022-09-25T03:06:13.408Z,77.76
2022-09-25T03:08:49.352Z,78.09
2022-09-25T03:11:21.208Z,78.10
2022-09-25T03:14:05.881Z,78.58
2022-09-25T03:16:53.100Z,78.26
2022-09-25T03:19:20.111Z,78.96
2022-09-25T03:21:48.275Z,78.08
2022-09-25T03:24:15.870Z,79.48
2022-09-25T03:26:43.594Z,78.81
2022-09-25T03:29:14.725Z,76.16
2022-09-25T03:31:42.571Z,77.00
2022-09-25T03:34:16.380Z,78.87
2022-09-25T03:36:47.339Z,78.70
2022-09-25T03:39:17.942Z,78.48
2022-09-25T03:41:45.494Z,78.26
2022-09-25T03:44:12.691Z,77.43
2022-09-25T03:46:40.883Z,78.29
2022-09-25T03:49:10.455Z,76.51
2022-09-25T03:51:38.790Z,78.12
2022-09-25T03:54:05.918Z,79.22
2022-09-25T03:56:33.212Z,80.19
2022-09-25T03:59:00.372Z,78.75
2022-09-25T04:01:28.879Z,78.01
2022-09-25T04:03:55.893Z,77.81
2022-09-25T04:06:26.322Z,76.31
2022-09-25T04:08:54.299Z,79.29
2022-09-25T04:11:24.747Z,79.50
2022-09-25T04:13:52.738Z,80.26
2022-09-25T04:16:21.069Z,80.92
2022-09-25T04:18:48.191Z,80.81
2022-09-25T04:21:16.222Z,79.67
2022-09-25T04:24:03.300Z,79.32
2022-09-25T04:26:31.560Z,78.34
2022-09-25T04:29:01.506Z,78.56
2022-09-25T04:31:30.984Z,80.49
2022-09-25T04:33:58.255Z,80.42
2022-09-25T04:36:25.222Z,80.41
2022-09-25T04:38:52.202Z,81.21
2022-09-25T04:41:20.015Z,79.36
2022-09-25T04:43:47.720Z,81.03
2022-09-25T04:46:21.399Z,81.13
2022-09-25T04:48:50.350Z,79.05
2022-09-25T04:51:17.345Z,80.41
2022-09-25T04:53:44.342Z,81.03
2022-09-25T04:56:16.334Z,80.52
2022-09-25T04:58:50.606Z,80.17
2022-09-25T05:01:20.653Z,81.21
2022-09-25T05:03:53.900Z,81.19
2022-09-25T05:06:22.962Z,81.41
2022-09-25T05:08:50.105Z,82.03
2022-09-25T05:11:17.107Z,81.19
2022-09-25T05:13:46.578Z,81.17
2022-09-25T05:16:13.756Z,81.57
2022-09-25T05:18:40.787Z,81.51
2022-09-25T05:21:07.773Z,80.12
2022-09-25T05:23:34.735Z,79.97
2022-09-25T05:26:02.606Z,80.04
2022-09-25T05:28:31.960Z,81.22
2022-09-25T05:31:04.181Z,80.77
2022-09-25T05:33:35.651Z,81.60
2022-09-25T05:36:07.533Z,81.17
2022-09-25T05:38:39.178Z,81.69
2022-09-25T05:41:09.363Z,81.20
2022-09-25T05:43:46.686Z,81.14
2022-09-25T05:46:15.165Z,80.73
2022-09-25T05:48:42.507Z,80.40
2022-09-25T05:51:10.227Z,80.76
2022-09-25T05:53:38.168Z,81.45
2022-09-25T05:56:06.510Z,81.46
2022-09-25T05:58:35.156Z,82.30
2022-09-25T06:01:05.649Z,82.32
2022-09-25T06:03:33.039Z,81.60
2022-09-25T06:06:00.672Z,81.85
2022-09-25T06:08:31.151Z,81.02
2022-09-25T06:11:00.707Z,80.57
2022-09-25T06:13:28.041Z,80.06
2022-09-25T06:15:55.103Z,79.53
2022-09-25T06:18:24.679Z,78.80
2022-09-25T06:20:58.410Z,80.67
2022-09-25T06:23:25.443Z,80.40
2022-09-25T06:25:52.371Z,79.83
2022-09-25T06:28:19.345Z,80.08
2022-09-25T06:30:47.693Z,80.15
2022-09-25T06:33:14.972Z,79.61
2022-09-25T06:35:48.333Z,79.07
2022-09-25T06:38:16.983Z,78.14
2022-09-25T06:40:45.330Z,78.31
2022-09-25T06:43:16.252Z,77.44
2022-09-25T06:45:43.930Z,78.43
2022-09-25T06:48:14.083Z,77.40
2022-09-25T06:50:51.130Z,77.88
2022-09-25T06:53:20.584Z,77.33
2022-09-25T06:55:47.898Z,77.60
2022-09-25T06:58:20.460Z,76.52
2022-09-25T07:00:53.462Z,76.67
2022-09-25T07:03:39.991Z,75.48
2022-09-25T07:06:10.953Z,76.49
2022-09-25T07:08:38.606Z,75.31
2022-09-25T07:11:06.342Z,75.25
2022-09-25T07:13:36.791Z,73.32
2022-09-25T07:16:08.097Z,72.63
2022-09-25T07:18:35.397Z,73.59
2022-09-25T07:21:14.899Z,72.50
2022-09-25T07:23:42.626Z,72.79
2022-09-25T07:26:14.498Z,72.43
2022-09-25T07:28:43.902Z,75.16
2022-09-25T07:31:24.472Z,73.61
2022-09-25T07:33:51.791Z,72.40
2022-09-25T07:36:19.900Z,70.60
2022-09-25T07:38:54.120Z,71.83
2022-09-25T07:41:22.957Z,71.08
2022-09-25T07:46:46.571Z,70.65
2022-09-25T07:49:14.364Z,70.10
2022-09-25T07:51:41.852Z,72.22
2022-09-25T07:54:08.939Z,71.29
2022-09-25T07:56:38.024Z,70.67
2022-09-25T07:59:08.027Z,70.21
2022-09-25T08:01:39.539Z,70.99
2022-09-25T08:04:09.864Z,71.47
2022-09-25T08:06:37.025Z,69.34
2022-09-25T08:09:09.491Z,69.15
2022-09-25T08:11:37.936Z,70.50
2022-09-25T08:14:04.979Z,72.74
2022-09-25T08:16:32.029Z,73.13
2022-09-25T08:18:58.949Z,73.92
2022-09-25T08:21:25.882Z,73.08
2022-09-25T08:23:54.651Z,73.30
2022-09-25T08:26:23.315Z,71.90
2022-09-25T08:28:51.925Z,71.36
2022-09-25T08:31:19.412Z,69.23
2022-09-25T08:33:49.261Z,70.58
2022-09-25T08:36:18.082Z,67.04
2022-09-25T08:38:45.647Z,65.65
2022-09-25T08:41:32.574Z,66.48
2022-09-25T08:44:27.101Z,65.55
2022-09-25T08:47:31.662Z,66.96
2022-09-25T08:50:19.067Z,66.09
2022-09-25T08:52:58.502Z,66.28
2022-09-25T08:55:57.535Z,65.11
2022-09-25T08:58:30.715Z,66.45
2022-09-25T09:01:06.759Z,64.80
2022-09-25T09:03:45.739Z,65.67
2022-09-25T09:06:17.406Z,64.56
2022-09-25T09:08:58.373Z,65.34
2022-09-25T09:11:44.056Z,64.57
2022-09-25T09:14:21.077Z,66.89
2022-09-25T09:17:18.198Z,66.11
2022-09-25T09:19:51.492Z,64.97
2022-09-25T09:22:42.062Z,66.35
2022-09-25T09:26:02.520Z,65.25
2022-09-25T09:30:06.197Z,63.26
2022-09-25T09:33:29.427Z,66.44
2022-09-25T09:36:33.063Z,67.18
2022-09-25T09:39:35.952Z,65.58
2022-09-25T09:42:36.461Z,68.58
2022-09-25T09:45:53.026Z,64.52
2022-09-25T09:49:11.904Z,67.27
2022-09-25T09:51:58.274Z,65.49
2022-09-25T09:55:00.983Z,64.58
2022-09-25T09:57:33.600Z,68.56
2022-09-25T10:00:13.246Z,67.87
2022-09-25T10:03:02.776Z,64.20
2022-09-25T10:05:49.836Z,60.33
2022-09-25T10:08:17.522Z,59.22
2022-09-25T10:10:53.722Z,60.45
2022-09-25T10:13:36.108Z,59.00
2022-09-25T10:16:24.278Z,59.40
2022-09-25T10:19:19.216Z,58.86
2022-09-25T10:22:05.319Z,57.65
2022-09-25T10:25:05.297Z,59.10
2022-09-25T10:27:45.922Z,58.30
2022-09-25T10:30:20.672Z,57.45
2022-09-25T10:33:18.457Z,57.20
2022-09-25T10:35:46.603Z,57.00
2022-09-25T10:38:43.872Z,58.42
2022-09-25T10:41:20.627Z,54.23
2022-09-25T10:44:02.352Z,54.31
2022-09-25T10:46:56.064Z,52.99
2022-09-25T10:49:46.925Z,52.77
2022-09-25T10:52:22.131Z,52.35
2022-09-25T10:54:50.935Z,50.38
2022-09-25T10:57:38.454Z,52.80
2022-09-25T11:00:24.527Z,53.04
2022-09-25T11:03:01.212Z,52.97
2022-09-25T11:05:36.914Z,52.56
2022-09-25T11:08:07.506Z,50.47
2022-09-25T11:10:47.549Z,50.78
2022-09-25T11:13:51.102Z,50.28
2022-09-25T11:16:19.718Z,51.90
2022-09-25T11:19:12.795Z,52.83
2022-09-25T11:22:14.036Z,54.73
2022-09-25T11:25:20.552Z,54.19
2022-09-25T11:28:14.852Z,51.55
2022-09-25T11:30:54.563Z,52.52
2022-09-25T11:33:50.790Z,53.14
2022-09-25T11:36:41.284Z,51.91
2022-09-25T11:40:10.514Z,51.39
2022-09-25T11:43:07.891Z,55.34
2022-09-25T11:45:55.676Z,54.83
2022-09-25T11:49:05.402Z,54.14
2022-09-25T11:52:17.478Z,49.96
2022-09-25T11:55:57.571Z,51.20
2022-09-25T11:58:40.167Z,55.08
2022-09-25T12:01:38.748Z,52.39
2022-09-25T12:04:59.115Z,55.69
2022-09-25T12:08:13.984Z,57.24
2022-09-25T12:11:08.458Z,54.51
2022-09-25T12:13:56.202Z,54.61
2022-09-25T12:16:58.114Z,54.75
2022-09-25T12:19:49.679Z,54.29
2022-09-25T12:22:48.760Z,52.71
2022-09-25T12:25:54.731Z,52.90
2022-09-25T12:29:29.029Z,51.40
2022-09-25T12:32:14.228Z,48.74
2022-09-25T12:35:16.236Z,49.26
2022-09-25T12:37:54.604Z,46.03
2022-09-25T12:41:29.984Z,47.53
2022-09-25T12:44:36.232Z,47.02
2022-09-25T12:47:43.072Z,47.61
2022-09-25T12:50:20.930Z,47.13
2022-09-25T12:53:02.959Z,45.96
2022-09-25T12:55:42.140Z,43.57
2022-09-25T12:58:50.626Z,45.41
2022-09-25T13:01:42.103Z,43.91
2022-09-25T13:04:51.012Z,44.25
2022-09-25T13:08:07.271Z,45.38
2022-09-25T13:11:38.373Z,46.03
2022-09-25T13:14:35.443Z,43.57
2022-09-25T13:17:03.071Z,44.22
2022-09-25T13:19:35.404Z,43.93
2022-09-25T13:22:14.183Z,42.75
2022-09-25T13:24:50.025Z,46.29
2022-09-25T13:27:24.976Z,45.07
2022-09-25T13:30:00.950Z,45.92
2022-09-25T13:32:34.716Z,46.69
2022-09-25T13:35:07.821Z,46.81
2022-09-25T13:37:40.496Z,46.28
2022-09-25T13:40:45.053Z,46.83
2022-09-25T13:43:29.590Z,48.04
2022-09-25T13:46:21.629Z,48.17
2022-09-25T13:48:52.329Z,48.47
2022-09-25T13:51:21.806Z,50.05
2022-09-25T13:54:23.760Z,48.00
2022-09-25T13:56:54.195Z,47.74
2022-09-25T13:59:24.570Z,47.62
2022-09-25T14:02:22.704Z,47.18
2022-09-25T14:04:50.182Z,48.00
2022-09-25T14:07:26.435Z,48.29
2022-09-25T14:09:59.014Z,48.67
2022-09-25T14:12:48.409Z,47.88
2022-09-25T14:15:30.320Z,50.02
2022-09-25T14:18:03.123Z,50.10
2022-09-25T14:20:42.995Z,49.50
2022-09-25T14:23:20.687Z,49.57
2022-09-25T14:26:01.401Z,49.79
2022-09-25T14:28:57.558Z,50.77
2022-09-25T14:31:31.504Z,51.08
2022-09-25T14:34:32.203Z,53.50
2022-09-25T14:38:11.511Z,51.85
2022-09-25T14:41:06.646Z,55.02
2022-09-25T14:44:00.082Z,53.59
2022-09-25T14:46:29.353Z,55.46
2022-09-25T14:49:14.217Z,55.01
2022-09-25T14:51:47.159Z,53.68
2022-09-25T14:54:20.555Z,55.17
2022-09-25T14:56:55.530Z,55.20
2022-09-25T14:59:45.811Z,54.35
2022-09-25T15:02:18.676Z,54.76
2022-09-25T15:04:45.984Z,55.76
2022-09-25T15:07:23.631Z,56.02
2022-09-25T15:09:55.503Z,55.12
2022-09-25T15:12:33.747Z,56.31
2022-09-25T15:15:14.920Z,56.07
2022-09-25T15:17:57.797Z,56.14
2022-09-25T15:20:34.681Z,56.21
2022-09-25T15:23:10.327Z,54.91
2022-09-25T15:25:47.407Z,57.08
2022-09-25T15:28:26.017Z,55.61
2022-09-25T15:31:03.803Z,55.26
2022-09-25T15:33:37.021Z,55.25
2022-09-25T15:36:15.999Z,55.30
2022-09-25T15:38:44.311Z,55.68
2022-09-25T15:41:15.813Z,55.36
2022-09-25T15:43:43.212Z,56.40
2022-09-25T15:46:10.290Z,55.14
2022-09-25T15:48:54.751Z,54.33
2022-09-25T15:51:25.697Z,56.45
2022-09-25T15:54:01.416Z,56.12
2022-09-25T15:56:57.030Z,56.55
2022-09-25T16:00:07.399Z,57.35
2022-09-25T16:02:58.893Z,58.31
2022-09-25T16:05:38.119Z,59.58
2022-09-25T16:08:36.683Z,58.95
2022-09-25T16:11:26.848Z,59.84
2022-09-25T16:14:22.747Z,61.14
2022-09-25T16:16:51.367Z,61.54
2022-09-25T16:19:27.711Z,62.35
2022-09-25T16:21:55.594Z,61.83
2022-09-25T16:24:29.138Z,61.95
2022-09-25T16:27:02.869Z,61.39
2022-09-25T16:29:39.049Z,61.44
2022-09-25T16:32:16.503Z,62.47
2022-09-25T16:35:02.951Z,62.57
2022-09-25T16:37:35.723Z,61.46
2022-09-25T16:40:33.746Z,63.91
2022-09-25T16:43:01.974Z,63.06
2022-09-25T16:45:34.156Z,65.22
2022-09-25T16:48:28.432Z,64.77
2022-09-25T16:50:55.820Z,65.30
2022-09-25T16:53:27.102Z,64.98
2022-09-25T16:55:54.227Z,65.91
2022-09-25T16:58:22.875Z,65.49
2022-09-25T17:00:50.960Z,65.71
2022-09-25T17:03:17.922Z,66.95
2022-09-25T17:05:44.849Z,68.01
2022-09-25T17:08:17.512Z,67.61
2022-09-25T17:10:46.255Z,67.04
2022-09-25T17:13:18.027Z,67.62
2022-09-25T17:15:45.339Z,69.42
2022-09-25T17:18:21.119Z,68.99
2022-09-25T17:20:55.385Z,69.52
2022-09-25T17:23:25.921Z,69.84
2022-09-25T17:26:21.322Z,69.91
2022-09-25T17:28:49.689Z,69.97
2022-09-25T17:31:21.061Z,70.63
2022-09-25T17:33:52.041Z,70.43
2022-09-25T17:36:19.069Z,70.44
2022-09-25T17:38:46.253Z,71.59
2022-09-25T17:41:32.711Z,71.82
2022-09-25T17:44:00.178Z,73.12
2022-09-25T17:46:27.271Z,73.01
2022-09-25T17:48:54.909Z,72.53
2022-09-25T17:51:27.795Z,71.94
2022-09-25T17:53:56.281Z,72.83
2022-09-25T17:56:25.721Z,73.73
2022-09-25T17:58:54.945Z,73.08
2022-09-25T18:01:26.989Z,72.64
2022-09-25T18:04:07.464Z,73.44
2022-09-25T18:06:34.377Z,73.21
2022-09-25T18:09:01.338Z,71.97
2022-09-25T18:11:28.316Z,71.45
2022-09-25T18:14:00.911Z,73.62
2022-09-25T18:16:32.695Z,71.03
2022-09-25T18:19:18.409Z,72.29
2022-09-25T18:22:04.137Z,73.44
2022-09-25T18:24:31.084Z,73.51
2022-09-25T18:26:58.394Z,72.81
2022-09-25T18:29:25.823Z,73.18
2022-09-25T18:31:52.897Z,73.12
2022-09-25T18:34:21.727Z,72.32
2022-09-25T18:36:51.728Z,73.65
2022-09-25T18:39:20.326Z,73.27
2022-09-25T18:41:48.195Z,71.47
2022-09-25T18:44:17.582Z,72.60
2022-09-25T18:46:45.050Z,72.83
2022-09-25T18:49:12.385Z,72.62
2022-09-25T18:51:39.990Z,73.31
2022-09-25T18:54:07.029Z,73.73
2022-09-25T18:56:34.595Z,73.26
2022-09-25T18:59:05.569Z,73.33
2022-09-25T19:01:36.262Z,75.10
2022-09-25T19:04:04.117Z,74.50
2022-09-25T19:06:31.203Z,74.01
2022-09-25T19:08:59.288Z,73.20
2022-09-25T19:11:28.270Z,73.39
2022-09-25T19:13:56.421Z,74.02
2022-09-25T19:16:24.119Z,75.71
2022-09-25T19:18:51.204Z,75.47
2022-09-25T19:21:22.948Z,76.36
2022-09-25T19:23:50.722Z,76.73
2022-09-25T19:26:25.649Z,75.85
2022-09-25T19:28:54.003Z,75.40
2022-09-25T19:31:27.445Z,76.18
2022-09-25T19:33:55.350Z,76.12
2022-09-25T19:36:26.680Z,75.36
2022-09-25T19:38:54.329Z,75.90
2022-09-25T19:41:35.669Z,76.92
2022-09-25T19:44:12.370Z,75.69
2022-09-25T19:46:42.961Z,75.85
2022-09-25T19:49:12.427Z,77.24
2022-09-25T19:51:40.396Z,76.60
2022-09-25T19:54:10.394Z,77.58
2022-09-25T19:56:40.841Z,77.93
2022-09-25T19:59:14.931Z,77.70
2022-09-25T20:01:43.605Z,78.19
2022-09-25T20:04:17.457Z,78.54
2022-09-25T20:06:45.930Z,79.18
2022-09-25T20:09:13.011Z,79.40
2022-09-25T20:11:40.101Z,80.09
2022-09-25T20:14:07.745Z,80.06
2022-09-25T20:16:37.244Z,80.46
2022-09-25T20:19:06.756Z,79.73
2022-09-25T20:21:38.401Z,79.93
2022-09-25T20:24:08.339Z,77.57
2022-09-25T20:26:36.364Z,79.34
2022-09-25T20:29:13.883Z,79.06
2022-09-25T20:31:45.278Z,79.57
2022-09-25T20:34:16.113Z,79.95
2022-09-25T20:36:43.711Z,79.69
2022-09-25T20:39:10.847Z,80.63
2022-09-25T20:41:38.227Z,80.28
2022-09-25T20:44:06.158Z,80.30
2022-09-25T20:46:33.907Z,79.87
2022-09-25T20:49:02.176Z,81.50
2022-09-25T20:51:35.253Z,81.27
2022-09-25T20:54:09.669Z,81.40
2022-09-25T20:56:43.519Z,80.18
2022-09-25T20:59:11.943Z,80.54
2022-09-25T21:01:41.429Z,80.26
2022-09-25T21:04:09.943Z,81.58
2022-09-25T21:06:40.238Z,80.32
2022-09-25T21:09:21.569Z,80.23
2022-09-25T21:11:49.356Z,80.85
2022-09-25T21:14:27.892Z,80.63
2022-09-25T21:16:59.011Z,79.93
2022-09-25T21:19:27.947Z,81.59
2022-09-25T21:21:55.014Z,81.08
2022-09-25T21:24:22.656Z,82.14
2022-09-25T21:26:50.250Z,81.28
2022-09-25T21:29:18.592Z,81.24
2022-09-25T21:31:49.774Z,83.79
2022-09-25T21:34:18.394Z,84.06
2022-09-25T21:36:46.754Z,82.34
2022-09-25T21:39:14.056Z,83.21
2022-09-25T21:41:42.211Z,82.32
2022-09-25T21:44:15.607Z,81.85
2022-09-25T21:46:44.016Z,82.56
2022-09-25T21:49:19.915Z,83.82
2022-09-25T21:51:48.450Z,83.80
2022-09-25T21:54:16.769Z,82.92
2022-09-25T21:56:44.422Z,84.46
2022-09-25T21:59:12.357Z,84.33
2022-09-25T22:01:40.375Z,83.60
2022-09-25T22:04:12.015Z,83.37
2022-09-25T22:06:48.000Z,82.94
2022-09-25T22:09:23.124Z,83.47
2022-09-25T22:11:51.056Z,83.83
2022-09-25T22:14:20.541Z,86.66
2022-09-25T22:16:51.984Z,84.17
2022-09-25T22:19:27.859Z,84.45
2022-09-25T22:21:59.274Z,84.64
2022-09-25T22:24:26.726Z,85.32
2022-09-25T22:26:55.888Z,84.90
2022-09-25T22:29:23.741Z,85.09
2022-09-25T22:31:50.795Z,85.63
2022-09-25T22:34:26.782Z,84.73
2022-09-25T22:36:59.439Z,84.40
2022-09-25T22:39:28.463Z,82.72
2022-09-25T22:41:56.267Z,82.93
2022-09-25T22:44:24.071Z,84.33
2022-09-25T22:46:51.120Z,84.65
2022-09-25T22:49:18.566Z,83.34
2022-09-25T22:51:45.994Z,82.28
2022-09-25T22:54:14.489Z,83.17
2022-09-25T22:56:42.405Z,84.09
2022-09-25T22:59:17.892Z,84.39
2022-09-25T23:01:53.781Z,85.29
2022-09-25T23:04:24.355Z,84.22
2022-09-25T23:06:52.590Z,84.65
2022-09-25T23:09:25.811Z,83.57
2022-09-25T23:11:56.081Z,82.89
2022-09-25T23:14:30.630Z,83.58
2022-09-25T23:16:58.787Z,83.73
2022-09-25T23:19:26.409Z,84.09
2022-09-25T23:21:56.534Z,83.41
2022-09-25T23:24:24.349Z,83.12
2022-09-25T23:26:51.867Z,83.50
2022-09-25T23:29:21.782Z,82.96
2022-09-25T23:31:50.598Z,82.80
2022-09-25T23:34:18.866Z,83.36
2022-09-25T23:36:45.937Z,83.60
2022-09-25T23:39:20.056Z,83.82
2022-09-25T23:41:47.889Z,84.08
2022-09-25T23:44:14.969Z,82.64
2022-09-25T23:46:44.198Z,82.86
2022-09-25T23:49:11.753Z,82.87
2022-09-25T23:51:39.295Z,84.33
2022-09-25T23:54:06.665Z,84.64
2022-09-25T23:56:35.122Z,83.62
2022-09-25T23:59:04.116Z,83.07
